sensor_id;sensor_type;location;lat;lon;timestamp;P1;durP1;ratioP1;P2;durP2;ratioP2
20734;SDS011;10528;52.124;5.196;2022-08-19T00:00:36;4.57;;;3.50;;
20734;SDS011;10528;52.124;5.196;2022-08-19T00:03:04;4.93;;;3.33;;
20734;SDS011;10528;52.124;5.196;2022-08-19T00:05:33;4.30;;;3.65;;
20734;SDS011;10528;52.124;5.196;2022-08-19T00:08:00;4.15;;;3.40;;
20734;SDS011;10528;52.124;5.196;2022-08-19T00:10:27;4.47;;;3.50;;
20734;SDS011;10528;52.124;5.196;2022-08-19T00:12:54;4.13;;;3.63;;
20734;SDS011;10528;52.124;5.196;2022-08-19T00:15:21;4.10;;;3.30;;
20734;SDS011;10528;52.124;5.196;2022-08-19T00:17:48;4.90;;;3.35;;
20734;SDS011;10528;52.124;5.196;2022-08-19T00:20:17;6.30;;;3.80;;
20734;SDS011;10528;52.124;5.196;2022-08-19T00:22:47;5.28;;;3.53;;
20734;SDS011;10528;52.124;5.196;2022-08-19T00:25:14;4.60;;;3.67;;
20734;SDS011;10528;52.124;5.196;2022-08-19T00:27:42;5.82;;;3.83;;
20734;SDS011;10528;52.124;5.196;2022-08-19T00:30:10;4.20;;;3.58;;
20734;SDS011;10528;52.124;5.196;2022-08-19T00:32:38;4.85;;;3.90;;
20734;SDS011;10528;52.124;5.196;2022-08-19T00:35:05;4.65;;;4.03;;
20734;SDS011;10528;52.124;5.196;2022-08-19T00:37:33;4.68;;;3.63;;
20734;SDS011;10528;52.124;5.196;2022-08-19T00:40:02;4.75;;;3.80;;
20734;SDS011;10528;52.124;5.196;2022-08-19T00:42:31;4.97;;;3.70;;
20734;SDS011;10528;52.124;5.196;2022-08-19T00:44:58;4.60;;;3.75;;
20734;SDS011;10528;52.124;5.196;2022-08-19T00:47:26;4.28;;;3.88;;
20734;SDS011;10528;52.124;5.196;2022-08-19T00:49:54;4.35;;;3.95;;
20734;SDS011;10528;52.124;5.196;2022-08-19T00:52:32;6.53;;;3.97;;
20734;SDS011;10528;52.124;5.196;2022-08-19T00:55:05;5.28;;;3.90;;
20734;SDS011;10528;52.124;5.196;2022-08-19T00:57:39;4.88;;;3.70;;
20734;SDS011;10528;52.124;5.196;2022-08-19T01:00:12;4.57;;;3.95;;
20734;SDS011;10528;52.124;5.196;2022-08-19T01:02:44;8.18;;;4.25;;
20734;SDS011;10528;52.124;5.196;2022-08-19T01:05:14;5.85;;;3.67;;
20734;SDS011;10528;52.124;5.196;2022-08-19T01:07:46;4.60;;;3.78;;
20734;SDS011;10528;52.124;5.196;2022-08-19T01:10:18;5.22;;;4.18;;
20734;SDS011;10528;52.124;5.196;2022-08-19T01:12:50;6.32;;;4.07;;
20734;SDS011;10528;52.124;5.196;2022-08-19T01:15:24;4.95;;;4.35;;
20734;SDS011;10528;52.124;5.196;2022-08-19T01:17:57;6.43;;;3.92;;
20734;SDS011;10528;52.124;5.196;2022-08-19T01:20:30;5.63;;;3.75;;
20734;SDS011;10528;52.124;5.196;2022-08-19T01:22:59;4.45;;;3.72;;
20734;SDS011;10528;52.124;5.196;2022-08-19T01:25:32;4.35;;;3.95;;
20734;SDS011;10528;52.124;5.196;2022-08-19T01:28:14;8.18;;;4.13;;
20734;SDS011;10528;52.124;5.196;2022-08-19T01:30:58;5.07;;;4.00;;
20734;SDS011;10528;52.124;5.196;2022-08-19T01:33:25;5.82;;;4.20;;
20734;SDS011;10528;52.124;5.196;2022-08-19T01:35:52;8.07;;;4.25;;
20734;SDS011;10528;52.124;5.196;2022-08-19T01:38:23;7.03;;;4.20;;
20734;SDS011;10528;52.124;5.196;2022-08-19T01:40:52;5.80;;;3.97;;
20734;SDS011;10528;52.124;5.196;2022-08-19T01:43:20;6.10;;;3.60;;
20734;SDS011;10528;52.124;5.196;2022-08-19T01:45:46;6.05;;;3.50;;
20734;SDS011;10528;52.124;5.196;2022-08-19T01:48:14;6.70;;;3.80;;
20734;SDS011;10528;52.124;5.196;2022-08-19T01:50:41;6.50;;;4.28;;
20734;SDS011;10528;52.124;5.196;2022-08-19T01:53:10;5.93;;;4.00;;
20734;SDS011;10528;52.124;5.196;2022-08-19T01:55:39;4.95;;;3.40;;
20734;SDS011;10528;52.124;5.196;2022-08-19T01:58:13;5.43;;;3.70;;
20734;SDS011;10528;52.124;5.196;2022-08-19T02:00:46;5.30;;;3.75;;
20734;SDS011;10528;52.124;5.196;2022-08-19T02:03:13;5.90;;;3.75;;
20734;SDS011;10528;52.124;5.196;2022-08-19T02:05:43;6.15;;;3.70;;
20734;SDS011;10528;52.124;5.196;2022-08-19T02:08:12;6.38;;;3.67;;
20734;SDS011;10528;52.124;5.196;2022-08-19T02:10:40;6.40;;;3.80;;
20734;SDS011;10528;52.124;5.196;2022-08-19T02:13:10;6.30;;;3.58;;
20734;SDS011;10528;52.124;5.196;2022-08-19T02:15:39;5.82;;;3.92;;
20734;SDS011;10528;52.124;5.196;2022-08-19T02:18:06;4.32;;;3.92;;
20734;SDS011;10528;52.124;5.196;2022-08-19T02:20:34;4.60;;;4.13;;
20734;SDS011;10528;52.124;5.196;2022-08-19T02:23:03;5.80;;;3.58;;
20734;SDS011;10528;52.124;5.196;2022-08-19T02:25:39;5.82;;;4.40;;
20734;SDS011;10528;52.124;5.196;2022-08-19T02:28:06;4.97;;;3.85;;
20734;SDS011;10528;52.124;5.196;2022-08-19T02:30:33;4.43;;;3.75;;
20734;SDS011;10528;52.124;5.196;2022-08-19T02:33:00;5.07;;;3.75;;
20734;SDS011;10528;52.124;5.196;2022-08-19T02:35:27;6.30;;;3.67;;
20734;SDS011;10528;52.124;5.196;2022-08-19T02:37:54;4.60;;;3.80;;
20734;SDS011;10528;52.124;5.196;2022-08-19T02:40:39;6.53;;;3.90;;
20734;SDS011;10528;52.124;5.196;2022-08-19T02:43:06;6.30;;;4.25;;
20734;SDS011;10528;52.124;5.196;2022-08-19T02:45:35;6.65;;;4.38;;
20734;SDS011;10528;52.124;5.196;2022-08-19T02:48:06;5.50;;;3.95;;
20734;SDS011;10528;52.124;5.196;2022-08-19T02:50:47;6.35;;;4.57;;
20734;SDS011;10528;52.124;5.196;2022-08-19T02:53:22;4.65;;;3.97;;
20734;SDS011;10528;52.124;5.196;2022-08-19T02:55:50;5.35;;;4.30;;
20734;SDS011;10528;52.124;5.196;2022-08-19T02:58:18;6.03;;;4.40;;
20734;SDS011;10528;52.124;5.196;2022-08-19T03:00:51;7.65;;;3.90;;
20734;SDS011;10528;52.124;5.196;2022-08-19T03:03:22;5.78;;;3.92;;
20734;SDS011;10528;52.124;5.196;2022-08-19T03:05:49;4.68;;;3.80;;
20734;SDS011;10528;52.124;5.196;2022-08-19T03:08:22;6.00;;;4.63;;
20734;SDS011;10528;52.124;5.196;2022-08-19T03:10:51;5.25;;;4.72;;
20734;SDS011;10528;52.124;5.196;2022-08-19T03:13:19;5.18;;;4.53;;
20734;SDS011;10528;52.124;5.196;2022-08-19T03:15:46;6.97;;;5.50;;
20734;SDS011;10528;52.124;5.196;2022-08-19T03:18:14;6.93;;;5.10;;
20734;SDS011;10528;52.124;5.196;2022-08-19T03:20:52;7.75;;;5.95;;
20734;SDS011;10528;52.124;5.196;2022-08-19T03:23:20;9.63;;;6.30;;
20734;SDS011;10528;52.124;5.196;2022-08-19T03:25:49;8.02;;;5.70;;
20734;SDS011;10528;52.124;5.196;2022-08-19T03:28:39;8.35;;;5.43;;
20734;SDS011;10528;52.124;5.196;2022-08-19T03:31:07;7.93;;;5.18;;
20734;SDS011;10528;52.124;5.196;2022-08-19T03:33:57;6.22;;;5.18;;
20734;SDS011;10528;52.124;5.196;2022-08-19T03:36:25;6.28;;;5.40;;
20734;SDS011;10528;52.124;5.196;2022-08-19T03:38:56;6.43;;;5.53;;
20734;SDS011;10528;52.124;5.196;2022-08-19T03:41:28;8.18;;;4.72;;
20734;SDS011;10528;52.124;5.196;2022-08-19T03:44:14;6.00;;;4.93;;
20734;SDS011;10528;52.124;5.196;2022-08-19T03:46:54;6.95;;;5.13;;
20734;SDS011;10528;52.124;5.196;2022-08-19T03:49:24;6.28;;;4.88;;
20734;SDS011;10528;52.124;5.196;2022-08-19T03:51:57;5.20;;;4.57;;
20734;SDS011;10528;52.124;5.196;2022-08-19T03:54:26;6.10;;;4.80;;
20734;SDS011;10528;52.124;5.196;2022-08-19T03:56:55;5.82;;;4.88;;
20734;SDS011;10528;52.124;5.196;2022-08-19T03:59:27;6.25;;;5.07;;
20734;SDS011;10528;52.124;5.196;2022-08-19T04:02:00;6.60;;;4.97;;
20734;SDS011;10528;52.124;5.196;2022-08-19T04:04:34;6.93;;;5.20;;
20734;SDS011;10528;52.124;5.196;2022-08-19T04:07:06;5.50;;;4.63;;
20734;SDS011;10528;52.124;5.196;2022-08-19T04:09:35;6.18;;;4.95;;
20734;SDS011;10528;52.124;5.196;2022-08-19T04:12:03;7.75;;;5.75;;
20734;SDS011;10528;52.124;5.196;2022-08-19T04:14:31;8.35;;;5.50;;
20734;SDS011;10528;52.124;5.196;2022-08-19T04:16:59;8.75;;;5.60;;
20734;SDS011;10528;52.124;5.196;2022-08-19T04:19:30;7.05;;;5.25;;
20734;SDS011;10528;52.124;5.196;2022-08-19T04:21:58;9.05;;;6.15;;
20734;SDS011;10528;52.124;5.196;2022-08-19T04:24:25;7.80;;;5.93;;
20734;SDS011;10528;52.124;5.196;2022-08-19T04:26:52;7.05;;;5.97;;
20734;SDS011;10528;52.124;5.196;2022-08-19T04:29:21;7.43;;;6.10;;
20734;SDS011;10528;52.124;5.196;2022-08-19T04:31:51;8.82;;;6.38;;
20734;SDS011;10528;52.124;5.196;2022-08-19T04:34:22;7.68;;;6.18;;
20734;SDS011;10528;52.124;5.196;2022-08-19T04:36:52;8.88;;;6.00;;
20734;SDS011;10528;52.124;5.196;2022-08-19T04:39:23;9.85;;;6.93;;
20734;SDS011;10528;52.124;5.196;2022-08-19T04:42:15;8.00;;;6.30;;
20734;SDS011;10528;52.124;5.196;2022-08-19T04:45:03;9.55;;;6.85;;
20734;SDS011;10528;52.124;5.196;2022-08-19T04:47:43;8.82;;;7.35;;
20734;SDS011;10528;52.124;5.196;2022-08-19T04:50:23;8.90;;;7.60;;
20734;SDS011;10528;52.124;5.196;2022-08-19T04:52:53;9.93;;;7.63;;
20734;SDS011;10528;52.124;5.196;2022-08-19T04:55:21;8.80;;;7.30;;
20734;SDS011;10528;52.124;5.196;2022-08-19T04:57:51;11.95;;;8.20;;
20734;SDS011;10528;52.124;5.196;2022-08-19T05:00:18;14.63;;;8.30;;
20734;SDS011;10528;52.124;5.196;2022-08-19T05:02:45;9.95;;;7.97;;
20734;SDS011;10528;52.124;5.196;2022-08-19T05:05:12;9.77;;;7.95;;
20734;SDS011;10528;52.124;5.196;2022-08-19T05:07:40;10.98;;;8.43;;
20734;SDS011;10528;52.124;5.196;2022-08-19T05:10:07;10.10;;;8.07;;
20734;SDS011;10528;52.124;5.196;2022-08-19T05:12:35;9.93;;;8.02;;
20734;SDS011;10528;52.124;5.196;2022-08-19T05:15:03;9.32;;;8.00;;
20734;SDS011;10528;52.124;5.196;2022-08-19T05:17:32;10.43;;;8.52;;
20734;SDS011;10528;52.124;5.196;2022-08-19T05:20:05;12.65;;;8.18;;
20734;SDS011;10528;52.124;5.196;2022-08-19T05:22:52;11.48;;;9.77;;
20734;SDS011;10528;52.124;5.196;2022-08-19T05:25:20;11.07;;;8.68;;
20734;SDS011;10528;52.124;5.196;2022-08-19T05:27:48;11.05;;;8.50;;
20734;SDS011;10528;52.124;5.196;2022-08-19T05:30:15;11.52;;;8.38;;
20734;SDS011;10528;52.124;5.196;2022-08-19T05:32:43;12.00;;;8.23;;
20734;SDS011;10528;52.124;5.196;2022-08-19T05:35:11;10.98;;;8.07;;
20734;SDS011;10528;52.124;5.196;2022-08-19T05:37:38;10.38;;;7.63;;
20734;SDS011;10528;52.124;5.196;2022-08-19T05:40:09;10.55;;;7.70;;
20734;SDS011;10528;52.124;5.196;2022-08-19T05:42:36;8.60;;;7.20;;
20734;SDS011;10528;52.124;5.196;2022-08-19T05:45:04;9.10;;;7.57;;
20734;SDS011;10528;52.124;5.196;2022-08-19T05:47:32;13.88;;;8.15;;
20734;SDS011;10528;52.124;5.196;2022-08-19T05:50:07;10.95;;;7.82;;
20734;SDS011;10528;52.124;5.196;2022-08-19T05:52:35;12.15;;;7.57;;
20734;SDS011;10528;52.124;5.196;2022-08-19T05:55:08;11.70;;;8.00;;
20734;SDS011;10528;52.124;5.196;2022-08-19T05:57:36;11.70;;;8.68;;
20734;SDS011;10528;52.124;5.196;2022-08-19T06:00:04;12.75;;;8.82;;
20734;SDS011;10528;52.124;5.196;2022-08-19T06:02:37;20.13;;;13.52;;
20734;SDS011;10528;52.124;5.196;2022-08-19T06:05:05;20.77;;;14.88;;
20734;SDS011;10528;52.124;5.196;2022-08-19T06:07:35;21.50;;;14.35;;
20734;SDS011;10528;52.124;5.196;2022-08-19T06:10:05;23.08;;;16.83;;
20734;SDS011;10528;52.124;5.196;2022-08-19T06:12:35;29.17;;;19.63;;
20734;SDS011;10528;52.124;5.196;2022-08-19T06:15:04;32.45;;;20.15;;
20734;SDS011;10528;52.124;5.196;2022-08-19T06:17:36;27.80;;;19.20;;
20734;SDS011;10528;52.124;5.196;2022-08-19T06:20:04;30.55;;;21.00;;
20734;SDS011;10528;52.124;5.196;2022-08-19T06:22:39;42.08;;;23.02;;
20734;SDS011;10528;52.124;5.196;2022-08-19T06:25:08;38.00;;;21.67;;
20734;SDS011;10528;52.124;5.196;2022-08-19T06:27:35;44.40;;;25.52;;
20734;SDS011;10528;52.124;5.196;2022-08-19T06:30:23;47.70;;;25.90;;
20734;SDS011;10528;52.124;5.196;2022-08-19T06:32:50;56.13;;;30.65;;
20734;SDS011;10528;52.124;5.196;2022-08-19T06:35:18;53.30;;;28.67;;
20734;SDS011;10528;52.124;5.196;2022-08-19T06:37:45;57.13;;;30.98;;
20734;SDS011;10528;52.124;5.196;2022-08-19T06:40:13;54.50;;;30.75;;
20734;SDS011;10528;52.124;5.196;2022-08-19T06:42:40;61.28;;;33.65;;
20734;SDS011;10528;52.124;5.196;2022-08-19T06:45:20;62.35;;;34.60;;
20734;SDS011;10528;52.124;5.196;2022-08-19T06:47:50;58.55;;;33.47;;
20734;SDS011;10528;52.124;5.196;2022-08-19T06:50:24;63.03;;;34.17;;
20734;SDS011;10528;52.124;5.196;2022-08-19T06:52:51;63.25;;;34.88;;
20734;SDS011;10528;52.124;5.196;2022-08-19T06:55:19;58.80;;;32.20;;
20734;SDS011;10528;52.124;5.196;2022-08-19T06:57:46;57.10;;;32.05;;
20734;SDS011;10528;52.124;5.196;2022-08-19T07:00:14;61.90;;;35.88;;
20734;SDS011;10528;52.124;5.196;2022-08-19T07:02:42;54.83;;;30.05;;
20734;SDS011;10528;52.124;5.196;2022-08-19T07:05:18;56.88;;;32.90;;
20734;SDS011;10528;52.124;5.196;2022-08-19T07:07:45;60.42;;;33.25;;
20734;SDS011;10528;52.124;5.196;2022-08-19T07:10:13;59.95;;;32.33;;
20734;SDS011;10528;52.124;5.196;2022-08-19T07:12:40;57.97;;;32.13;;
20734;SDS011;10528;52.124;5.196;2022-08-19T07:15:07;52.97;;;30.65;;
20734;SDS011;10528;52.124;5.196;2022-08-19T07:17:35;53.22;;;31.70;;
20734;SDS011;10528;52.124;5.196;2022-08-19T07:20:07;50.10;;;29.73;;
20734;SDS011;10528;52.124;5.196;2022-08-19T07:22:36;46.97;;;28.02;;
20734;SDS011;10528;52.124;5.196;2022-08-19T07:25:06;46.13;;;28.70;;
20734;SDS011;10528;52.124;5.196;2022-08-19T07:27:35;49.03;;;29.70;;
20734;SDS011;10528;52.124;5.196;2022-08-19T07:30:05;46.03;;;29.58;;
20734;SDS011;10528;52.124;5.196;2022-08-19T07:32:37;51.33;;;30.33;;
20734;SDS011;10528;52.124;5.196;2022-08-19T07:35:05;45.08;;;29.83;;
20734;SDS011;10528;52.124;5.196;2022-08-19T07:37:33;49.47;;;31.17;;
20734;SDS011;10528;52.124;5.196;2022-08-19T07:40:02;46.42;;;30.23;;
20734;SDS011;10528;52.124;5.196;2022-08-19T07:42:32;45.35;;;30.38;;
20734;SDS011;10528;52.124;5.196;2022-08-19T07:44:59;51.38;;;30.58;;
20734;SDS011;10528;52.124;5.196;2022-08-19T07:47:25;49.95;;;30.33;;
20734;SDS011;10528;52.124;5.196;2022-08-19T07:50:14;46.53;;;30.25;;
20734;SDS011;10528;52.124;5.196;2022-08-19T07:52:42;52.28;;;32.67;;
20734;SDS011;10528;52.124;5.196;2022-08-19T07:55:14;51.08;;;30.90;;
20734;SDS011;10528;52.124;5.196;2022-08-19T07:58:05;47.30;;;30.50;;
20734;SDS011;10528;52.124;5.196;2022-08-19T08:00:32;48.00;;;29.88;;
20734;SDS011;10528;52.124;5.196;2022-08-19T08:02:59;45.42;;;29.52;;
20734;SDS011;10528;52.124;5.196;2022-08-19T08:05:26;46.10;;;28.75;;
20734;SDS011;10528;52.124;5.196;2022-08-19T08:08:13;41.00;;;27.63;;
20734;SDS011;10528;52.124;5.196;2022-08-19T08:10:59;45.88;;;29.55;;
20734;SDS011;10528;52.124;5.196;2022-08-19T08:13:27;47.80;;;30.83;;
20734;SDS011;10528;52.124;5.196;2022-08-19T08:15:55;48.63;;;31.65;;
20734;SDS011;10528;52.124;5.196;2022-08-19T08:18:23;45.58;;;30.08;;
20734;SDS011;10528;52.124;5.196;2022-08-19T08:20:56;47.10;;;29.17;;
20734;SDS011;10528;52.124;5.196;2022-08-19T08:23:24;48.08;;;30.08;;
20734;SDS011;10528;52.124;5.196;2022-08-19T08:25:53;48.15;;;30.33;;
20734;SDS011;10528;52.124;5.196;2022-08-19T08:28:23;42.78;;;29.15;;
20734;SDS011;10528;52.124;5.196;2022-08-19T08:30:55;47.05;;;30.45;;
20734;SDS011;10528;52.124;5.196;2022-08-19T08:33:24;44.22;;;29.20;;
20734;SDS011;10528;52.124;5.196;2022-08-19T08:36:06;46.92;;;30.77;;
20734;SDS011;10528;52.124;5.196;2022-08-19T08:38:34;44.38;;;29.88;;
20734;SDS011;10528;52.124;5.196;2022-08-19T08:41:28;44.33;;;28.80;;
20734;SDS011;10528;52.124;5.196;2022-08-19T08:44:23;34.70;;;24.98;;
20734;SDS011;10528;52.124;5.196;2022-08-19T08:47:04;41.42;;;29.65;;
20734;SDS011;10528;52.124;5.196;2022-08-19T08:49:43;39.78;;;27.20;;
20734;SDS011;10528;52.124;5.196;2022-08-19T08:52:24;35.55;;;25.38;;
20734;SDS011;10528;52.124;5.196;2022-08-19T08:54:59;35.80;;;26.17;;
20734;SDS011;10528;52.124;5.196;2022-08-19T08:57:39;29.55;;;23.13;;
20734;SDS011;10528;52.124;5.196;2022-08-19T09:00:23;38.67;;;26.80;;
20734;SDS011;10528;52.124;5.196;2022-08-19T09:02:56;37.05;;;24.45;;
20734;SDS011;10528;52.124;5.196;2022-08-19T09:05:37;32.95;;;24.63;;
20734;SDS011;10528;52.124;5.196;2022-08-19T09:08:17;31.58;;;24.13;;
20734;SDS011;10528;52.124;5.196;2022-08-19T09:10:59;35.53;;;25.38;;
20734;SDS011;10528;52.124;5.196;2022-08-19T09:13:57;33.95;;;24.13;;
20734;SDS011;10528;52.124;5.196;2022-08-19T09:17:14;28.85;;;21.90;;
20734;SDS011;10528;52.124;5.196;2022-08-19T09:19:52;29.10;;;21.67;;
20734;SDS011;10528;52.124;5.196;2022-08-19T09:22:35;26.95;;;20.83;;
20734;SDS011;10528;52.124;5.196;2022-08-19T09:25:05;26.90;;;20.23;;
20734;SDS011;10528;52.124;5.196;2022-08-19T09:27:36;29.50;;;19.85;;
20734;SDS011;10528;52.124;5.196;2022-08-19T09:30:11;31.83;;;21.90;;
20734;SDS011;10528;52.124;5.196;2022-08-19T09:32:48;26.75;;;20.42;;
20734;SDS011;10528;52.124;5.196;2022-08-19T09:35:18;26.52;;;19.90;;
20734;SDS011;10528;52.124;5.196;2022-08-19T09:37:48;27.33;;;20.98;;
20734;SDS011;10528;52.124;5.196;2022-08-19T09:40:22;29.50;;;20.30;;
20734;SDS011;10528;52.124;5.196;2022-08-19T09:42:51;25.33;;;20.27;;
20734;SDS011;10528;52.124;5.196;2022-08-19T09:45:20;29.73;;;21.50;;
20734;SDS011;10528;52.124;5.196;2022-08-19T09:47:49;25.83;;;18.88;;
20734;SDS011;10528;52.124;5.196;2022-08-19T09:50:20;31.88;;;22.50;;
20734;SDS011;10528;52.124;5.196;2022-08-19T09:52:49;26.35;;;19.88;;
20734;SDS011;10528;52.124;5.196;2022-08-19T09:55:23;24.77;;;19.27;;
20734;SDS011;10528;52.124;5.196;2022-08-19T09:57:57;23.13;;;17.88;;
20734;SDS011;10528;52.124;5.196;2022-08-19T10:00:28;25.60;;;20.15;;
20734;SDS011;10528;52.124;5.196;2022-08-19T10:02:57;30.88;;;21.73;;
20734;SDS011;10528;52.124;5.196;2022-08-19T10:05:24;26.60;;;21.23;;
20734;SDS011;10528;52.124;5.196;2022-08-19T10:08:09;28.77;;;21.63;;
20734;SDS011;10528;52.124;5.196;2022-08-19T10:10:39;28.30;;;21.20;;
20734;SDS011;10528;52.124;5.196;2022-08-19T10:13:12;32.25;;;23.05;;
20734;SDS011;10528;52.124;5.196;2022-08-19T10:15:44;31.45;;;22.77;;
20734;SDS011;10528;52.124;5.196;2022-08-19T10:18:14;30.75;;;21.77;;
20734;SDS011;10528;52.124;5.196;2022-08-19T10:20:44;28.90;;;23.35;;
20734;SDS011;10528;52.124;5.196;2022-08-19T10:23:17;26.52;;;19.85;;
20734;SDS011;10528;52.124;5.196;2022-08-19T10:25:46;30.00;;;21.38;;
20734;SDS011;10528;52.124;5.196;2022-08-19T10:28:14;25.60;;;21.70;;
20734;SDS011;10528;52.124;5.196;2022-08-19T10:30:41;26.38;;;21.67;;
20734;SDS011;10528;52.124;5.196;2022-08-19T10:33:08;32.72;;;23.52;;
20734;SDS011;10528;52.124;5.196;2022-08-19T10:35:36;27.45;;;22.70;;
20734;SDS011;10528;52.124;5.196;2022-08-19T10:38:22;30.50;;;21.45;;
20734;SDS011;10528;52.124;5.196;2022-08-19T10:40:58;26.52;;;20.38;;
20734;SDS011;10528;52.124;5.196;2022-08-19T10:43:36;30.80;;;22.65;;
20734;SDS011;10528;52.124;5.196;2022-08-19T10:46:09;27.65;;;21.33;;
20734;SDS011;10528;52.124;5.196;2022-08-19T10:48:42;28.17;;;21.88;;
20734;SDS011;10528;52.124;5.196;2022-08-19T10:51:11;24.52;;;21.23;;
20734;SDS011;10528;52.124;5.196;2022-08-19T10:53:58;28.40;;;21.67;;
20734;SDS011;10528;52.124;5.196;2022-08-19T10:56:26;25.77;;;21.30;;
20734;SDS011;10528;52.124;5.196;2022-08-19T10:59:13;26.38;;;21.55;;
20734;SDS011;10528;52.124;5.196;2022-08-19T11:01:42;29.02;;;21.85;;
20734;SDS011;10528;52.124;5.196;2022-08-19T11:04:11;25.65;;;19.00;;
20734;SDS011;10528;52.124;5.196;2022-08-19T11:06:40;26.48;;;20.95;;
20734;SDS011;10528;52.124;5.196;2022-08-19T11:09:09;32.13;;;22.77;;
20734;SDS011;10528;52.124;5.196;2022-08-19T11:11:37;29.63;;;21.42;;
20734;SDS011;10528;52.124;5.196;2022-08-19T11:14:12;31.13;;;23.98;;
20734;SDS011;10528;52.124;5.196;2022-08-19T11:16:44;33.55;;;23.67;;
20734;SDS011;10528;52.124;5.196;2022-08-19T11:19:11;26.48;;;20.50;;
20734;SDS011;10528;52.124;5.196;2022-08-19T11:21:43;26.80;;;21.75;;
20734;SDS011;10528;52.124;5.196;2022-08-19T11:24:16;28.35;;;21.77;;
20734;SDS011;10528;52.124;5.196;2022-08-19T11:26:48;25.75;;;19.10;;
20734;SDS011;10528;52.124;5.196;2022-08-19T11:29:22;27.60;;;20.27;;
20734;SDS011;10528;52.124;5.196;2022-08-19T11:31:53;27.52;;;19.88;;
20734;SDS011;10528;52.124;5.196;2022-08-19T11:34:22;27.83;;;19.13;;
20734;SDS011;10528;52.124;5.196;2022-08-19T11:36:54;30.42;;;21.13;;
20734;SDS011;10528;52.124;5.196;2022-08-19T11:39:26;27.77;;;21.27;;
20734;SDS011;10528;52.124;5.196;2022-08-19T11:41:59;23.38;;;18.35;;
20734;SDS011;10528;52.124;5.196;2022-08-19T11:44:29;24.92;;;18.50;;
20734;SDS011;10528;52.124;5.196;2022-08-19T11:46:56;22.38;;;17.15;;
20734;SDS011;10528;52.124;5.196;2022-08-19T11:49:34;24.58;;;18.13;;
20734;SDS011;10528;52.124;5.196;2022-08-19T11:52:02;23.90;;;18.23;;
20734;SDS011;10528;52.124;5.196;2022-08-19T11:54:29;26.63;;;19.92;;
20734;SDS011;10528;52.124;5.196;2022-08-19T11:56:57;26.00;;;17.98;;
20734;SDS011;10528;52.124;5.196;2022-08-19T11:59:24;25.42;;;19.80;;
20734;SDS011;10528;52.124;5.196;2022-08-19T12:01:52;25.02;;;18.75;;
20734;SDS011;10528;52.124;5.196;2022-08-19T12:04:19;27.98;;;20.15;;
20734;SDS011;10528;52.124;5.196;2022-08-19T12:06:46;19.13;;;15.90;;
20734;SDS011;10528;52.124;5.196;2022-08-19T12:09:14;22.08;;;16.25;;
20734;SDS011;10528;52.124;5.196;2022-08-19T12:11:41;20.13;;;14.25;;
20734;SDS011;10528;52.124;5.196;2022-08-19T12:14:09;18.13;;;13.65;;
20734;SDS011;10528;52.124;5.196;2022-08-19T12:16:40;18.02;;;14.23;;
20734;SDS011;10528;52.124;5.196;2022-08-19T12:19:16;14.10;;;12.38;;
20734;SDS011;10528;52.124;5.196;2022-08-19T12:21:47;15.02;;;12.57;;
20734;SDS011;10528;52.124;5.196;2022-08-19T12:24:16;22.58;;;13.45;;
20734;SDS011;10528;52.124;5.196;2022-08-19T12:26:49;15.77;;;12.55;;
20734;SDS011;10528;52.124;5.196;2022-08-19T12:29:18;15.48;;;11.30;;
20734;SDS011;10528;52.124;5.196;2022-08-19T12:31:49;13.70;;;9.10;;
20734;SDS011;10528;52.124;5.196;2022-08-19T12:34:17;9.00;;;7.70;;
20734;SDS011;10528;52.124;5.196;2022-08-19T12:36:45;10.30;;;7.35;;
20734;SDS011;10528;52.124;5.196;2022-08-19T12:39:15;9.27;;;6.82;;
20734;SDS011;10528;52.124;5.196;2022-08-19T12:41:41;12.18;;;7.03;;
20734;SDS011;10528;52.124;5.196;2022-08-19T12:44:20;14.35;;;8.43;;
20734;SDS011;10528;52.124;5.196;2022-08-19T12:46:54;11.80;;;8.73;;
20734;SDS011;10528;52.124;5.196;2022-08-19T12:49:22;11.25;;;8.73;;
20734;SDS011;10528;52.124;5.196;2022-08-19T12:52:11;13.27;;;7.78;;
20734;SDS011;10528;52.124;5.196;2022-08-19T12:54:42;13.30;;;10.50;;
20734;SDS011;10528;52.124;5.196;2022-08-19T12:57:09;15.05;;;11.85;;
20734;SDS011;10528;52.124;5.196;2022-08-19T12:59:37;14.32;;;11.80;;
20734;SDS011;10528;52.124;5.196;2022-08-19T13:02:05;16.83;;;12.88;;
20734;SDS011;10528;52.124;5.196;2022-08-19T13:04:34;12.98;;;11.40;;
20734;SDS011;10528;52.124;5.196;2022-08-19T13:07:02;12.60;;;9.93;;
20734;SDS011;10528;52.124;5.196;2022-08-19T13:09:29;10.23;;;8.27;;
20734;SDS011;10528;52.124;5.196;2022-08-19T13:11:56;9.02;;;7.72;;
20734;SDS011;10528;52.124;5.196;2022-08-19T13:14:23;9.48;;;7.40;;
20734;SDS011;10528;52.124;5.196;2022-08-19T13:16:52;9.57;;;7.45;;
20734;SDS011;10528;52.124;5.196;2022-08-19T13:19:19;9.35;;;6.63;;
20734;SDS011;10528;52.124;5.196;2022-08-19T13:21:49;10.65;;;7.43;;
20734;SDS011;10528;52.124;5.196;2022-08-19T13:24:25;9.65;;;7.15;;
20734;SDS011;10528;52.124;5.196;2022-08-19T13:26:59;9.77;;;6.80;;
20734;SDS011;10528;52.124;5.196;2022-08-19T13:29:26;8.70;;;6.05;;
20734;SDS011;10528;52.124;5.196;2022-08-19T13:32:29;7.53;;;5.72;;
20734;SDS011;10528;52.124;5.196;2022-08-19T13:35:15;8.90;;;6.50;;
20734;SDS011;10528;52.124;5.196;2022-08-19T13:37:43;8.02;;;6.00;;
20734;SDS011;10528;52.124;5.196;2022-08-19T13:40:15;8.02;;;6.53;;
20734;SDS011;10528;52.124;5.196;2022-08-19T13:42:51;8.82;;;6.13;;
20734;SDS011;10528;52.124;5.196;2022-08-19T13:45:22;10.38;;;6.30;;
20734;SDS011;10528;52.124;5.196;2022-08-19T13:47:51;10.10;;;6.47;;
20734;SDS011;10528;52.124;5.196;2022-08-19T13:50:28;11.55;;;6.72;;
20734;SDS011;10528;52.124;5.196;2022-08-19T13:52:57;8.63;;;6.25;;
20734;SDS011;10528;52.124;5.196;2022-08-19T13:55:25;9.70;;;6.03;;
20734;SDS011;10528;52.124;5.196;2022-08-19T13:57:54;9.52;;;6.35;;
20734;SDS011;10528;52.124;5.196;2022-08-19T14:00:25;7.63;;;5.35;;
20734;SDS011;10528;52.124;5.196;2022-08-19T14:02:55;8.57;;;6.10;;
20734;SDS011;10528;52.124;5.196;2022-08-19T14:05:24;9.10;;;6.18;;
20734;SDS011;10528;52.124;5.196;2022-08-19T14:07:54;9.82;;;6.00;;
20734;SDS011;10528;52.124;5.196;2022-08-19T14:10:22;6.60;;;5.10;;
20734;SDS011;10528;52.124;5.196;2022-08-19T14:12:54;6.88;;;5.03;;
20734;SDS011;10528;52.124;5.196;2022-08-19T14:15:24;6.10;;;4.25;;
20734;SDS011;10528;52.124;5.196;2022-08-19T14:17:52;5.70;;;4.00;;
20734;SDS011;10528;52.124;5.196;2022-08-19T14:20:20;8.52;;;4.40;;
20734;SDS011;10528;52.124;5.196;2022-08-19T14:22:52;5.80;;;4.00;;
20734;SDS011;10528;52.124;5.196;2022-08-19T14:25:22;6.68;;;4.28;;
20734;SDS011;10528;52.124;5.196;2022-08-19T14:27:52;7.35;;;4.05;;
20734;SDS011;10528;52.124;5.196;2022-08-19T14:30:23;6.45;;;4.35;;
20734;SDS011;10528;52.124;5.196;2022-08-19T14:32:55;7.45;;;4.32;;
20734;SDS011;10528;52.124;5.196;2022-08-19T14:35:24;6.45;;;4.07;;
20734;SDS011;10528;52.124;5.196;2022-08-19T14:37:56;6.82;;;4.45;;
20734;SDS011;10528;52.124;5.196;2022-08-19T14:40:25;4.63;;;3.60;;
20734;SDS011;10528;52.124;5.196;2022-08-19T14:42:56;5.70;;;3.90;;
20734;SDS011;10528;52.124;5.196;2022-08-19T14:45:31;6.07;;;4.00;;
20734;SDS011;10528;52.124;5.196;2022-08-19T14:48:02;4.47;;;3.25;;
20734;SDS011;10528;52.124;5.196;2022-08-19T14:50:31;6.90;;;4.03;;
20734;SDS011;10528;52.124;5.196;2022-08-19T14:53:07;4.25;;;3.30;;
20734;SDS011;10528;52.124;5.196;2022-08-19T14:55:40;3.92;;;3.53;;
20734;SDS011;10528;52.124;5.196;2022-08-19T14:58:09;5.22;;;3.28;;
20734;SDS011;10528;52.124;5.196;2022-08-19T15:00:56;3.47;;;2.65;;